createdAt,value
2023-04-09T00:00:57.933Z,56.30
2023-04-09T00:01:58.006Z,56.36
2023-04-09T00:02:58.117Z,56.15
2023-04-09T00:03:58.253Z,56.42
2023-04-09T00:04:58.136Z,56.28
2023-04-09T00:05:58.173Z,56.35
2023-04-09T00:06:58.225Z,56.23
2023-04-09T00:07:58.275Z,55.84
2023-04-09T00:08:58.334Z,55.96
2023-04-09T00:09:58.401Z,55.79
2023-04-09T00:10:58.436Z,55.79
2023-04-09T00:11:58.496Z,55.86
2023-04-09T00:12:58.550Z,55.81
2023-04-09T00:13:58.629Z,55.82
2023-04-09T00:14:58.671Z,55.93
2023-04-09T00:15:58.760Z,55.84
2023-04-09T00:16:58.814Z,55.80
2023-04-09T00:17:58.937Z,55.94
2023-04-09T00:18:58.926Z,55.72
2023-04-09T00:19:58.990Z,55.77
2023-04-09T00:20:59.053Z,55.93
2023-04-09T00:21:59.075Z,56.05
2023-04-09T00:22:59.146Z,56.12
2023-04-09T00:23:59.208Z,55.77
2023-04-09T00:24:59.250Z,55.72
2023-04-09T00:25:59.305Z,55.89
2023-04-09T00:26:59.378Z,55.91
2023-04-09T00:27:59.415Z,55.82
2023-04-09T00:28:59.486Z,55.66
2023-04-09T00:29:59.546Z,55.71
2023-04-09T00:30:59.608Z,55.68
2023-04-09T00:31:59.735Z,56.03
2023-04-09T00:32:59.752Z,55.86
2023-04-09T00:33:59.827Z,56.00
2023-04-09T00:34:59.843Z,56.03
2023-04-09T00:35:59.902Z,55.85
2023-04-09T00:36:59.963Z,55.82
2023-04-09T00:37:59.984Z,55.82
2023-04-09T00:39:00.054Z,56.05
2023-04-09T00:40:00.105Z,56.04
2023-04-09T00:41:00.155Z,55.90
2023-04-09T00:42:00.238Z,55.93
2023-04-09T00:43:00.255Z,55.87
2023-04-09T00:44:00.304Z,55.86
2023-04-09T00:45:00.394Z,55.90
2023-04-09T00:46:00.499Z,55.88
2023-04-09T00:47:00.473Z,55.83
2023-04-09T00:48:00.591Z,55.77
2023-04-09T00:49:00.581Z,55.62
2023-04-09T00:50:00.655Z,55.64
2023-04-09T00:51:00.684Z,55.59
2023-04-09T00:52:00.721Z,55.66
2023-04-09T00:53:00.776Z,55.63
2023-04-09T00:54:00.816Z,55.52
2023-04-09T00:55:00.851Z,55.50
2023-04-09T00:56:00.915Z,55.37
2023-04-09T00:57:01.008Z,55.31
2023-04-09T00:58:01.042Z,55.27
2023-04-09T00:59:01.104Z,55.16
2023-04-09T01:00:01.096Z,54.96
2023-04-09T01:01:01.158Z,55.11
2023-04-09T01:02:01.212Z,55.10
2023-04-09T01:03:01.279Z,55.08
2023-04-09T01:04:01.256Z,55.03
2023-04-09T01:05:01.244Z,55.24
2023-04-09T01:06:01.256Z,55.17
2023-04-09T01:07:01.339Z,55.17
2023-04-09T01:08:01.321Z,55.48
2023-04-09T01:09:01.321Z,55.42
2023-04-09T01:10:01.276Z,55.25
2023-04-09T01:11:01.291Z,55.30
2023-04-09T01:12:01.319Z,55.48
2023-04-09T01:13:01.325Z,55.81
2023-04-09T01:14:01.312Z,55.95
2023-04-09T01:15:01.306Z,55.74
2023-04-09T01:16:01.288Z,55.63
2023-04-09T01:17:01.295Z,55.57
2023-04-09T01:18:01.339Z,55.68
2023-04-09T01:19:01.304Z,55.73
2023-04-09T01:20:01.318Z,55.67
2023-04-09T01:21:01.336Z,55.58
2023-04-09T01:22:01.341Z,55.51
2023-04-09T01:23:01.327Z,55.48
2023-04-09T01:24:01.332Z,55.56
2023-04-09T01:25:01.344Z,55.37
2023-04-09T01:26:01.334Z,55.39
2023-04-09T01:27:01.333Z,55.35
2023-04-09T01:28:01.372Z,55.33
2023-04-09T01:29:01.381Z,55.51
2023-04-09T01:30:01.375Z,55.34
2023-04-09T01:31:01.370Z,55.28
2023-04-09T01:32:01.348Z,55.38
2023-04-09T01:33:01.371Z,55.39
2023-04-09T01:34:01.366Z,55.43
2023-04-09T01:35:01.391Z,55.51
2023-04-09T01:36:01.417Z,55.59
2023-04-09T01:37:01.391Z,55.54
2023-04-09T01:38:01.420Z,55.36
2023-04-09T01:39:01.404Z,55.41
2023-04-09T01:40:01.464Z,55.31
2023-04-09T01:41:01.527Z,55.18
2023-04-09T01:42:01.581Z,55.30
2023-04-09T01:43:01.631Z,55.38
2023-04-09T01:44:01.688Z,55.24
2023-04-09T01:45:01.720Z,55.34
2023-04-09T01:46:01.736Z,55.48
2023-04-09T01:47:01.707Z,55.60
2023-04-09T01:48:01.771Z,55.72
2023-04-09T01:49:01.738Z,55.50
2023-04-09T01:50:01.733Z,55.57
2023-04-09T01:51:01.754Z,55.74
2023-04-09T01:52:01.775Z,55.65
2023-04-09T01:53:01.770Z,55.60
2023-04-09T01:54:01.819Z,55.68
2023-04-09T01:55:01.834Z,55.66
2023-04-09T01:56:01.961Z,55.40
2023-04-09T01:57:01.833Z,55.36
2023-04-09T01:58:01.856Z,55.38
2023-04-09T01:59:01.857Z,55.41
2023-04-09T02:00:01.874Z,55.52
2023-04-09T02:01:01.884Z,55.42
2023-04-09T02:02:01.917Z,55.60
2023-04-09T02:03:01.987Z,55.37
2023-04-09T02:04:02.001Z,55.48
2023-04-09T02:05:01.910Z,55.42
2023-04-09T02:06:01.953Z,55.46
2023-04-09T02:07:01.922Z,55.41
2023-04-09T02:08:01.978Z,55.48
2023-04-09T02:09:01.955Z,55.50
2023-04-09T02:10:01.963Z,55.37
2023-04-09T02:11:01.969Z,55.29
2023-04-09T02:12:01.985Z,55.38
2023-04-09T02:13:02.003Z,55.46
2023-04-09T02:14:02.037Z,55.58
2023-04-09T02:15:02.068Z,55.52
2023-04-09T02:16:02.452Z,55.45
2023-04-09T02:17:02.161Z,55.43
2023-04-09T02:18:02.200Z,55.04
2023-04-09T02:19:02.172Z,55.44
2023-04-09T02:20:02.214Z,55.42
2023-04-09T02:21:02.285Z,55.49
2023-04-09T02:22:02.286Z,55.52
2023-04-09T02:23:02.290Z,55.30
2023-04-09T02:24:02.325Z,55.47
2023-04-09T02:25:02.376Z,55.46
2023-04-09T02:26:02.409Z,55.73
2023-04-09T02:27:02.460Z,55.73
2023-04-09T02:28:02.478Z,55.68
2023-04-09T02:29:02.532Z,55.65
2023-04-09T02:30:02.579Z,55.57
2023-04-09T02:31:02.661Z,55.71
2023-04-09T02:32:02.686Z,55.84
2023-04-09T02:33:02.763Z,55.93
2023-04-09T02:34:02.766Z,55.50
2023-04-09T02:35:02.831Z,55.39
2023-04-09T02:36:03.014Z,55.16
2023-04-09T02:37:02.948Z,55.38
2023-04-09T02:38:02.992Z,55.45
2023-04-09T02:39:03.045Z,55.51
2023-04-09T02:40:03.108Z,55.44
2023-04-09T02:41:03.230Z,55.35
2023-04-09T02:42:03.169Z,55.47
2023-04-09T02:43:03.227Z,55.30
2023-04-09T02:44:03.259Z,55.25
2023-04-09T02:45:03.323Z,55.19
2023-04-09T02:46:03.412Z,55.26
2023-04-09T02:47:03.421Z,55.31
2023-04-09T02:48:03.452Z,55.35
2023-04-09T02:49:03.506Z,55.10
2023-04-09T02:50:03.517Z,55.09
2023-04-09T02:51:03.536Z,55.08
2023-04-09T02:52:03.568Z,54.86
2023-04-09T02:53:03.626Z,54.99
2023-04-09T02:54:03.646Z,54.89
2023-04-09T02:55:03.691Z,54.99
2023-04-09T02:56:03.737Z,55.05
2023-04-09T02:57:03.760Z,54.99
2023-04-09T02:58:03.829Z,54.89
2023-04-09T02:59:03.813Z,54.99
2023-04-09T03:00:03.878Z,54.93
2023-04-09T03:01:03.886Z,54.95
2023-04-09T03:02:04.037Z,55.05
2023-04-09T03:03:04.091Z,55.03
2023-04-09T03:04:04.146Z,55.00
2023-04-09T03:05:04.016Z,55.02
2023-04-09T03:06:04.030Z,54.92
2023-04-09T03:07:04.061Z,54.81
2023-04-09T03:08:04.090Z,54.77
2023-04-09T03:09:04.130Z,54.80
2023-04-09T03:10:04.154Z,54.66
2023-04-09T03:11:04.183Z,54.98
2023-04-09T03:12:04.221Z,55.10
2023-04-09T03:13:04.245Z,55.23
2023-04-09T03:14:04.310Z,55.21
2023-04-09T03:15:04.359Z,55.20
2023-04-09T03:16:04.377Z,55.35
2023-04-09T03:17:04.430Z,55.51
2023-04-09T03:18:04.493Z,55.47
2023-04-09T03:19:04.527Z,55.33
2023-04-09T03:20:04.595Z,55.53
2023-04-09T03:21:04.630Z,55.77
2023-04-09T03:22:04.692Z,55.78
2023-04-09T03:23:04.765Z,55.81
2023-04-09T03:24:04.838Z,55.68
2023-04-09T03:25:04.885Z,55.84
2023-04-09T03:26:04.973Z,55.81
2023-04-09T03:27:04.996Z,55.73
2023-04-09T03:28:05.065Z,55.77
2023-04-09T03:29:05.126Z,56.03
2023-04-09T03:30:05.196Z,55.98
2023-04-09T03:31:05.287Z,55.88
2023-04-09T03:32:05.299Z,55.74
2023-04-09T03:33:05.389Z,55.58
2023-04-09T03:34:05.419Z,55.50
2023-04-09T03:35:05.452Z,55.38
2023-04-09T03:36:05.538Z,55.37
2023-04-09T03:37:05.554Z,55.33
2023-04-09T03:38:05.612Z,55.34
2023-04-09T03:39:05.649Z,55.28
2023-04-09T03:40:05.684Z,55.27
2023-04-09T03:41:05.735Z,55.11
2023-04-09T03:42:05.747Z,55.25
2023-04-09T03:43:05.774Z,55.41
2023-04-09T03:44:05.848Z,55.30
2023-04-09T03:45:05.860Z,54.97
2023-04-09T03:46:05.917Z,54.77
2023-04-09T03:47:05.968Z,54.86
2023-04-09T03:48:06.020Z,55.06
2023-04-09T03:49:06.050Z,55.19
2023-04-09T03:50:06.112Z,55.11
2023-04-09T03:51:06.142Z,55.14
2023-04-09T03:52:06.170Z,54.98
2023-04-09T03:53:06.235Z,54.96
2023-04-09T03:54:06.252Z,54.80
2023-04-09T03:55:06.305Z,54.94
2023-04-09T03:56:06.355Z,55.05
2023-04-09T03:57:06.375Z,54.94
2023-04-09T03:58:06.417Z,54.92
2023-04-09T03:59:06.493Z,54.92
2023-04-09T04:00:06.514Z,54.87
2023-04-09T04:01:06.571Z,55.03
2023-04-09T04:02:06.672Z,55.21
2023-04-09T04:03:06.794Z,55.31
2023-04-09T04:04:06.688Z,54.99
2023-04-09T04:05:06.693Z,54.92
2023-04-09T04:06:06.748Z,54.71
2023-04-09T04:07:06.771Z,54.85
2023-04-09T04:08:06.808Z,54.80
2023-04-09T04:09:06.847Z,54.86
2023-04-09T04:10:06.904Z,54.91
2023-04-09T04:11:06.936Z,54.81
2023-04-09T04:12:06.965Z,54.76
2023-04-09T04:13:07.000Z,54.82
2023-04-09T04:14:07.007Z,54.98
2023-04-09T04:15:07.044Z,55.10
2023-04-09T04:16:07.231Z,54.99
2023-04-09T04:17:07.093Z,54.94
2023-04-09T04:18:07.117Z,54.98
2023-04-09T04:19:07.148Z,54.80
2023-04-09T04:20:07.177Z,54.79
2023-04-09T04:21:07.248Z,55.03
2023-04-09T04:22:07.277Z,55.06
2023-04-09T04:23:07.303Z,55.20
2023-04-09T04:24:07.309Z,55.38
2023-04-09T04:25:07.349Z,55.45
2023-04-09T04:26:07.380Z,55.31
2023-04-09T04:27:07.401Z,55.29
2023-04-09T04:28:07.428Z,55.13
2023-04-09T04:29:07.475Z,55.41
2023-04-09T04:30:07.504Z,55.49
2023-04-09T04:31:07.537Z,55.44
2023-04-09T04:32:07.572Z,55.14
2023-04-09T04:33:07.586Z,54.98
2023-04-09T04:34:07.611Z,55.11
2023-04-09T04:35:07.612Z,55.16
2023-04-09T04:36:07.645Z,55.30
2023-04-09T04:37:07.701Z,55.37
2023-04-09T04:38:07.755Z,55.40
2023-04-09T04:39:07.773Z,55.41
2023-04-09T04:40:07.805Z,55.30
2023-04-09T04:41:07.859Z,55.19
2023-04-09T04:42:07.883Z,55.34
2023-04-09T04:43:07.924Z,55.60
2023-04-09T04:44:07.987Z,55.18
2023-04-09T04:45:08.021Z,55.29
2023-04-09T04:46:08.072Z,55.47
2023-04-09T04:47:08.130Z,55.38
2023-04-09T04:48:08.151Z,55.33
2023-04-09T04:49:08.223Z,55.27
2023-04-09T04:50:08.253Z,55.16
2023-04-09T04:51:08.331Z,55.28
2023-04-09T04:52:08.355Z,55.40
2023-04-09T04:53:08.418Z,55.41
2023-04-09T04:54:08.468Z,55.61
2023-04-09T04:55:08.534Z,55.41
2023-04-09T04:56:08.568Z,55.12
2023-04-09T04:57:08.600Z,55.16
2023-04-09T04:58:08.665Z,55.55
2023-04-09T04:59:08.701Z,55.25
2023-04-09T05:00:08.771Z,55.20
2023-04-09T05:01:08.818Z,55.26
2023-04-09T05:02:08.909Z,55.55
2023-04-09T05:03:08.915Z,55.59
2023-04-09T05:04:08.969Z,55.30
2023-04-09T05:05:08.928Z,55.48
2023-04-09T05:06:08.967Z,55.79
2023-04-09T05:07:09.016Z,55.79
2023-04-09T05:08:09.030Z,55.62
2023-04-09T05:09:09.079Z,55.12
2023-04-09T05:10:09.094Z,55.31
2023-04-09T05:11:09.135Z,55.40
2023-04-09T05:12:09.167Z,55.44
2023-04-09T05:13:09.184Z,55.28
2023-04-09T05:14:09.227Z,55.52
2023-04-09T05:15:09.276Z,55.42
2023-04-09T05:16:09.327Z,55.24
2023-04-09T05:17:09.317Z,55.46
2023-04-09T05:18:09.327Z,55.57
2023-04-09T05:19:09.356Z,55.49
2023-04-09T05:20:09.407Z,55.64
2023-04-09T05:21:09.411Z,55.87
2023-04-09T05:22:09.432Z,55.96
2023-04-09T05:23:09.460Z,55.82
2023-04-09T05:24:09.510Z,55.86
2023-04-09T05:25:09.515Z,55.78
2023-04-09T05:26:09.531Z,55.95
2023-04-09T05:27:09.576Z,55.71
2023-04-09T05:28:09.544Z,55.63
2023-04-09T05:29:09.605Z,55.53
2023-04-09T05:30:09.575Z,55.53
2023-04-09T05:31:09.631Z,55.69
2023-04-09T05:32:09.634Z,55.54
2023-04-09T05:33:09.649Z,55.52
2023-04-09T05:34:09.659Z,55.47
2023-04-09T05:35:09.673Z,55.41
2023-04-09T05:36:09.709Z,55.33
2023-04-09T05:37:09.792Z,55.18
2023-04-09T05:38:09.799Z,55.29
2023-04-09T05:39:09.823Z,55.16
2023-04-09T05:40:09.857Z,54.95
2023-04-09T05:41:09.877Z,54.98
2023-04-09T05:42:09.898Z,55.00
2023-04-09T05:43:09.901Z,54.64
2023-04-09T05:44:09.934Z,55.02
2023-04-09T05:45:09.937Z,55.32
2023-04-09T05:46:09.968Z,55.06
2023-04-09T05:47:09.959Z,55.05
2023-04-09T05:48:09.985Z,54.92
2023-04-09T05:49:09.993Z,55.28
2023-04-09T05:50:10.012Z,55.16
2023-04-09T05:51:10.015Z,55.20
2023-04-09T05:52:10.026Z,55.31
2023-04-09T05:53:10.027Z,54.94
2023-04-09T05:54:10.030Z,54.76
2023-04-09T05:55:10.054Z,55.00
2023-04-09T05:56:10.040Z,55.11
2023-04-09T05:57:10.079Z,55.09
2023-04-09T05:58:10.079Z,55.30
2023-04-09T05:59:10.087Z,55.42
2023-04-09T06:00:10.089Z,55.51
2023-04-09T06:01:10.097Z,55.42
2023-04-09T06:02:10.178Z,55.30
2023-04-09T06:03:10.206Z,54.97
2023-04-09T06:04:10.259Z,54.89
2023-04-09T06:05:10.204Z,55.11
2023-04-09T06:06:10.118Z,55.08
2023-04-09T06:07:10.163Z,55.22
2023-04-09T06:08:10.224Z,55.23
2023-04-09T06:09:10.264Z,55.14
2023-04-09T06:10:10.255Z,55.23
2023-04-09T06:11:10.289Z,55.56
2023-04-09T06:12:10.273Z,55.63
2023-04-09T06:13:10.279Z,55.16
2023-04-09T06:14:10.287Z,55.12
2023-04-09T06:15:10.311Z,55.26
2023-04-09T06:16:10.392Z,55.60
2023-04-09T06:17:10.317Z,55.44
2023-04-09T06:18:10.370Z,55.12
2023-04-09T06:19:10.352Z,55.15
2023-04-09T06:20:10.373Z,55.38
2023-04-09T06:21:10.370Z,55.38
2023-04-09T06:22:10.390Z,55.36
2023-04-09T06:23:10.387Z,55.33
2023-04-09T06:24:10.408Z,55.45
2023-04-09T06:25:10.409Z,55.71
2023-04-09T06:26:10.421Z,56.13
2023-04-09T06:27:10.398Z,56.19
2023-04-09T06:28:10.436Z,55.97
2023-04-09T06:29:10.432Z,55.83
2023-04-09T06:30:10.452Z,55.89
2023-04-09T06:31:10.618Z,55.88
2023-04-09T06:32:10.554Z,55.79
2023-04-09T06:33:10.671Z,55.79
2023-04-09T06:34:10.678Z,55.51
2023-04-09T06:35:11.076Z,55.49
2023-04-09T06:36:10.862Z,55.56
2023-04-09T06:37:10.836Z,55.45
2023-04-09T06:38:10.907Z,55.27
2023-04-09T06:39:10.963Z,55.46
2023-04-09T06:40:11.033Z,55.36
2023-04-09T06:41:11.075Z,55.07
2023-04-09T06:42:11.149Z,55.14
2023-04-09T06:43:11.203Z,55.01
2023-04-09T06:44:11.245Z,54.99
2023-04-09T06:45:11.311Z,55.15
2023-04-09T06:46:11.359Z,55.20
2023-04-09T06:47:11.405Z,54.96
2023-04-09T06:48:11.448Z,54.65
2023-04-09T06:49:11.514Z,54.52
2023-04-09T06:50:11.598Z,54.47
2023-04-09T06:51:11.609Z,54.37
2023-04-09T06:52:11.663Z,54.47
2023-04-09T06:53:11.757Z,54.55
2023-04-09T06:54:11.787Z,54.46
2023-04-09T06:55:11.826Z,54.26
2023-04-09T06:56:11.859Z,54.21
2023-04-09T06:57:11.947Z,54.24
2023-04-09T06:58:11.964Z,54.54
2023-04-09T06:59:12.032Z,54.31
2023-04-09T07:00:12.069Z,54.17
2023-04-09T07:01:12.122Z,54.42
2023-04-09T07:02:12.242Z,54.54
2023-04-09T07:03:12.271Z,54.51
2023-04-09T07:04:12.345Z,54.43
2023-04-09T07:05:12.307Z,54.77
2023-04-09T07:06:12.335Z,54.83
2023-04-09T07:07:12.371Z,54.98
2023-04-09T07:08:12.399Z,54.84
2023-04-09T07:09:12.468Z,54.89
2023-04-09T07:10:12.473Z,54.76
2023-04-09T07:11:12.484Z,54.44
2023-04-09T07:12:12.536Z,54.50
2023-04-09T07:13:12.557Z,54.49
2023-04-09T07:14:12.598Z,54.09
2023-04-09T07:15:12.615Z,53.68
2023-04-09T07:16:12.688Z,54.01
2023-04-09T07:17:12.699Z,53.65
2023-04-09T07:18:12.773Z,53.92
2023-04-09T07:19:12.807Z,54.36
2023-04-09T07:20:12.820Z,54.40
2023-04-09T07:21:12.845Z,54.16
2023-04-09T07:22:12.854Z,53.89
2023-04-09T07:23:12.917Z,53.92
2023-04-09T07:24:12.943Z,53.88
2023-04-09T07:25:12.923Z,53.84
2023-04-09T07:26:12.937Z,53.92
2023-04-09T07:27:12.951Z,53.76
2023-04-09T07:28:13.002Z,53.80
2023-04-09T07:29:12.994Z,53.79
2023-04-09T07:30:12.992Z,53.75
2023-04-09T07:31:13.023Z,53.89
2023-04-09T07:32:12.999Z,53.81
2023-04-09T07:33:13.028Z,53.07
2023-04-09T07:34:13.010Z,53.16
2023-04-09T07:35:13.009Z,52.90
2023-04-09T07:36:13.136Z,52.94
2023-04-09T07:37:13.032Z,52.86
2023-04-09T07:38:13.029Z,52.67
2023-04-09T07:39:13.098Z,52.50
2023-04-09T07:40:13.053Z,52.42
2023-04-09T07:41:13.021Z,52.86
2023-04-09T07:42:13.021Z,53.58
2023-04-09T07:43:13.008Z,53.71
2023-04-09T07:44:13.065Z,53.36
2023-04-09T07:45:13.034Z,52.84
2023-04-09T07:46:13.111Z,52.59
2023-04-09T07:47:13.131Z,52.60
2023-04-09T07:48:13.177Z,52.64
2023-04-09T07:49:13.212Z,52.51
2023-04-09T07:50:13.198Z,52.51
2023-04-09T07:51:13.248Z,52.51
2023-04-09T07:52:13.252Z,52.18
2023-04-09T07:53:13.280Z,52.18
2023-04-09T07:54:13.307Z,52.36
2023-04-09T07:55:13.325Z,52.26
2023-04-09T07:56:13.356Z,52.44
2023-04-09T07:57:13.398Z,52.40
2023-04-09T07:58:13.466Z,52.14
2023-04-09T07:59:13.533Z,52.12
2023-04-09T08:00:13.553Z,52.09
2023-04-09T08:01:13.598Z,51.90
2023-04-09T08:02:15.369Z,51.80
2023-04-09T08:03:14.040Z,51.50
2023-04-09T08:04:13.960Z,51.57
2023-04-09T08:05:13.855Z,51.72
2023-04-09T08:06:13.871Z,51.58
2023-04-09T08:07:13.939Z,51.88
2023-04-09T08:08:13.990Z,52.03
2023-04-09T08:09:14.047Z,51.71
2023-04-09T08:10:14.026Z,51.30
2023-04-09T08:11:14.066Z,51.46
2023-04-09T08:12:14.090Z,51.28
2023-04-09T08:13:14.132Z,51.09
2023-04-09T08:14:14.177Z,50.90
2023-04-09T08:15:14.182Z,50.50
2023-04-09T08:16:14.264Z,50.81
2023-04-09T08:17:14.218Z,50.56
2023-04-09T08:18:14.249Z,50.40
2023-04-09T08:19:14.254Z,49.83
2023-04-09T08:20:14.247Z,49.89
2023-04-09T08:21:14.256Z,49.71
2023-04-09T08:22:14.286Z,49.63
2023-04-09T08:23:14.300Z,49.74
2023-04-09T08:24:14.289Z,49.68
2023-04-09T08:25:14.367Z,49.37
2023-04-09T08:26:14.364Z,48.79
2023-04-09T08:27:14.366Z,48.85
2023-04-09T08:28:14.372Z,48.89
2023-04-09T08:29:14.384Z,48.83
2023-04-09T08:30:15.121Z,49.23
2023-04-09T08:31:14.426Z,49.01
2023-04-09T08:32:14.418Z,49.12
2023-04-09T08:33:14.399Z,49.13
2023-04-09T08:34:14.405Z,48.46
2023-04-09T08:35:14.411Z,48.53
2023-04-09T08:36:14.446Z,48.48
2023-04-09T08:37:14.423Z,48.28
2023-04-09T08:38:14.396Z,48.44
2023-04-09T08:39:14.410Z,48.15
2023-04-09T08:40:14.472Z,47.90
2023-04-09T08:41:15.104Z,47.48
2023-04-09T08:42:14.601Z,46.96
2023-04-09T08:43:14.690Z,47.11
2023-04-09T08:44:14.738Z,47.64
2023-04-09T08:45:14.818Z,48.60
2023-04-09T08:46:14.885Z,48.75
2023-04-09T08:47:14.947Z,48.84
2023-04-09T08:48:15.155Z,48.81
2023-04-09T08:49:15.075Z,48.80
2023-04-09T08:50:15.131Z,48.74
2023-04-09T08:51:15.199Z,48.53
2023-04-09T08:52:15.264Z,48.24
2023-04-09T08:53:15.332Z,48.58
2023-04-09T08:54:15.395Z,48.90
2023-04-09T08:55:15.439Z,48.90
2023-04-09T08:56:15.520Z,48.88
2023-04-09T08:57:15.554Z,48.74
2023-04-09T08:58:15.597Z,48.41
2023-04-09T08:59:15.642Z,48.84
2023-04-09T09:00:15.697Z,48.57
2023-04-09T09:01:15.738Z,48.09
2023-04-09T09:02:15.809Z,47.70
2023-04-09T09:03:15.913Z,47.45
2023-04-09T09:04:15.910Z,47.76
2023-04-09T09:05:15.934Z,48.02
2023-04-09T09:06:15.994Z,47.64
2023-04-09T09:07:16.075Z,46.74
2023-04-09T09:08:16.120Z,46.43
2023-04-09T09:09:16.167Z,46.82
2023-04-09T09:10:16.234Z,45.85
2023-04-09T09:11:16.251Z,45.46
2023-04-09T09:12:16.264Z,46.13
2023-04-09T09:13:16.303Z,46.22
2023-04-09T09:14:16.377Z,45.69
2023-04-09T09:15:16.357Z,45.54
2023-04-09T09:16:16.470Z,45.91
2023-04-09T09:17:16.430Z,45.38
2023-04-09T09:18:16.481Z,44.80
2023-04-09T09:19:16.506Z,45.43
2023-04-09T09:20:16.561Z,45.65
2023-04-09T09:21:16.587Z,45.52
2023-04-09T09:22:16.576Z,45.47
2023-04-09T09:23:16.579Z,45.68
2023-04-09T09:24:16.610Z,45.61
2023-04-09T09:25:16.625Z,45.04
2023-04-09T09:26:16.678Z,45.19
2023-04-09T09:27:16.606Z,45.81
2023-04-09T09:28:16.617Z,46.10
2023-04-09T09:29:16.631Z,46.68
2023-04-09T09:30:16.639Z,46.62
2023-04-09T09:31:16.658Z,46.37
2023-04-09T09:32:16.647Z,46.74
2023-04-09T09:33:16.664Z,46.99
2023-04-09T09:34:16.712Z,46.70
2023-04-09T09:35:16.735Z,46.75
2023-04-09T09:36:16.756Z,46.72
2023-04-09T09:37:16.771Z,46.48
2023-04-09T09:38:16.801Z,45.57
2023-04-09T09:39:16.824Z,45.23
2023-04-09T09:40:16.849Z,44.55
2023-04-09T09:41:16.864Z,44.61
2023-04-09T09:42:16.931Z,44.84
2023-04-09T09:43:16.885Z,44.78
2023-04-09T09:44:16.900Z,44.64
2023-04-09T09:45:16.900Z,44.10
2023-04-09T09:46:16.952Z,43.52
2023-04-09T09:47:16.905Z,43.18
2023-04-09T09:48:16.916Z,43.37
2023-04-09T09:49:16.916Z,42.26
2023-04-09T09:50:17.020Z,41.45
2023-04-09T09:51:16.923Z,42.70
2023-04-09T09:52:16.936Z,43.10
2023-04-09T09:53:16.931Z,42.40
2023-04-09T09:54:16.921Z,42.50
2023-04-09T09:55:16.924Z,42.10
2023-04-09T09:56:16.937Z,42.18
2023-04-09T09:57:17.075Z,42.72
2023-04-09T09:58:16.950Z,42.87
2023-04-09T09:59:16.982Z,42.44
2023-04-09T10:00:18.627Z,42.78
2023-04-09T10:01:17.149Z,43.74
2023-04-09T10:02:17.279Z,43.40
2023-04-09T10:03:17.239Z,42.93
2023-04-09T10:04:17.285Z,42.72
2023-04-09T10:05:17.324Z,43.04
2023-04-09T10:06:17.378Z,42.75
2023-04-09T10:07:17.427Z,42.14
2023-04-09T10:08:17.437Z,41.71
2023-04-09T10:09:17.452Z,41.52
2023-04-09T10:10:17.476Z,42.05
2023-04-09T10:11:17.524Z,42.96
2023-04-09T10:12:17.579Z,43.14
2023-04-09T10:13:17.603Z,42.71
2023-04-09T10:14:17.654Z,42.27
2023-04-09T10:15:17.724Z,42.71
2023-04-09T10:16:17.831Z,42.63
2023-04-09T10:17:17.836Z,41.58
2023-04-09T10:18:17.863Z,41.54
2023-04-09T10:19:17.893Z,41.17
2023-04-09T10:20:17.936Z,41.32
2023-04-09T10:21:17.982Z,41.43
2023-04-09T10:22:18.040Z,42.02
2023-04-09T10:23:18.124Z,41.90
2023-04-09T10:24:18.193Z,42.09
2023-04-09T10:25:18.184Z,41.65
2023-04-09T10:26:18.227Z,41.08
2023-04-09T10:27:18.270Z,40.24
2023-04-09T10:28:18.328Z,39.77
2023-04-09T10:29:18.367Z,39.42
2023-04-09T10:30:18.419Z,38.82
2023-04-09T10:31:18.479Z,39.34
2023-04-09T10:32:18.472Z,39.02
2023-04-09T10:33:18.526Z,38.74
2023-04-09T10:34:18.547Z,37.89
2023-04-09T10:35:18.594Z,38.69
2023-04-09T10:36:18.653Z,38.70
2023-04-09T10:37:18.662Z,38.48
2023-04-09T10:38:18.700Z,38.03
2023-04-09T10:39:18.733Z,38.28
2023-04-09T10:40:18.756Z,38.36
2023-04-09T10:41:18.767Z,37.92
2023-04-09T10:42:18.803Z,35.70
2023-04-09T10:43:18.869Z,34.95
2023-04-09T10:44:18.941Z,35.51
2023-04-09T10:45:20.639Z,36.49
2023-04-09T10:46:18.940Z,36.61
2023-04-09T10:47:18.906Z,36.57
2023-04-09T10:48:18.878Z,36.04
2023-04-09T10:49:18.894Z,36.09
2023-04-09T10:50:18.905Z,36.70
2023-04-09T10:51:18.893Z,36.87
2023-04-09T10:52:18.964Z,36.96
2023-04-09T10:53:18.867Z,35.99
2023-04-09T10:54:18.866Z,35.82
2023-04-09T10:55:18.889Z,36.12
2023-04-09T10:56:18.846Z,37.11
2023-04-09T10:57:18.914Z,37.19
2023-04-09T10:58:18.832Z,36.43
2023-04-09T10:59:18.822Z,36.48
2023-04-09T11:00:18.857Z,37.29
2023-04-09T11:01:18.852Z,37.72
2023-04-09T11:02:18.856Z,37.74
2023-04-09T11:03:18.941Z,37.13
2023-04-09T11:04:18.818Z,36.96
2023-04-09T11:05:18.784Z,37.36
2023-04-09T11:06:18.789Z,36.13
2023-04-09T11:07:18.777Z,35.70
2023-04-09T11:08:18.772Z,35.18
2023-04-09T11:09:18.787Z,35.35
2023-04-09T11:10:18.766Z,35.53
2023-04-09T11:11:18.745Z,35.84
2023-04-09T11:12:18.761Z,35.79
2023-04-09T11:13:18.719Z,35.50
2023-04-09T11:14:18.707Z,35.20
2023-04-09T11:15:18.738Z,34.09
2023-04-09T11:16:22.833Z,33.37
2023-04-09T11:17:19.700Z,34.01
2023-04-09T11:18:18.677Z,34.86
2023-04-09T11:19:18.694Z,34.56
2023-04-09T11:20:18.666Z,34.53
2023-04-09T11:21:18.692Z,34.26
2023-04-09T11:22:18.745Z,34.25
2023-04-09T11:23:18.664Z,34.87
2023-04-09T11:24:18.648Z,35.73
2023-04-09T11:25:18.649Z,35.64
2023-04-09T11:26:18.627Z,35.79
2023-04-09T11:27:18.657Z,35.67
2023-04-09T11:28:18.730Z,35.18
2023-04-09T11:29:18.790Z,34.40
2023-04-09T11:30:18.852Z,35.11
2023-04-09T11:31:18.910Z,34.94
2023-04-09T11:32:18.946Z,34.73
2023-04-09T11:33:20.257Z,35.19
2023-04-09T11:34:18.981Z,35.72
2023-04-09T11:35:19.019Z,35.96
2023-04-09T11:36:19.103Z,35.88
2023-04-09T11:37:19.082Z,35.40
2023-04-09T11:38:19.095Z,34.74
2023-04-09T11:39:19.149Z,34.49
2023-04-09T11:40:19.170Z,34.65
2023-04-09T11:41:19.184Z,34.12
2023-04-09T11:42:19.221Z,33.93
2023-04-09T11:43:19.261Z,34.47
2023-04-09T11:44:20.052Z,34.07
2023-04-09T11:45:19.304Z,34.63
2023-04-09T11:46:19.352Z,34.17
2023-04-09T11:47:19.445Z,33.54
2023-04-09T11:48:19.405Z,32.38
2023-04-09T11:49:19.412Z,32.68
2023-04-09T11:50:19.445Z,32.67
2023-04-09T11:51:19.478Z,33.05
2023-04-09T11:52:19.487Z,33.18
2023-04-09T11:53:19.521Z,33.28
2023-04-09T11:54:19.557Z,33.25
2023-04-09T11:55:19.603Z,33.48
2023-04-09T11:56:19.644Z,33.31
2023-04-09T11:57:19.674Z,33.38
2023-04-09T11:58:19.692Z,33.77
2023-04-09T11:59:19.723Z,33.67
2023-04-09T12:00:19.785Z,33.19
2023-04-09T12:01:19.808Z,32.31
2023-04-09T12:02:19.981Z,31.42
2023-04-09T12:03:20.099Z,31.46
2023-04-09T12:04:20.132Z,31.01
2023-04-09T12:05:20.036Z,30.65
2023-04-09T12:06:20.033Z,31.06
2023-04-09T12:07:20.066Z,30.91
2023-04-09T12:08:20.107Z,30.25
2023-04-09T12:09:20.140Z,30.84
2023-04-09T12:10:20.170Z,30.75
2023-04-09T12:11:20.223Z,30.15
2023-04-09T12:12:20.212Z,28.95
2023-04-09T12:13:20.230Z,28.67
2023-04-09T12:14:20.236Z,29.96
2023-04-09T12:15:20.312Z,28.58
2023-04-09T12:16:20.315Z,28.97
2023-04-09T12:17:20.456Z,30.00
2023-04-09T12:18:20.284Z,30.61
2023-04-09T12:19:20.313Z,31.13
2023-04-09T12:20:20.326Z,30.72
2023-04-09T12:21:20.335Z,29.60
2023-04-09T12:22:20.359Z,30.10
2023-04-09T12:23:20.353Z,30.54
2023-04-09T12:24:20.392Z,30.74
2023-04-09T12:25:20.391Z,31.36
2023-04-09T12:26:20.416Z,30.20
2023-04-09T12:27:20.434Z,29.65
2023-04-09T12:28:20.454Z,28.85
2023-04-09T12:29:20.467Z,29.08
2023-04-09T12:30:20.502Z,29.93
2023-04-09T12:31:20.553Z,30.74
2023-04-09T12:32:20.548Z,31.24
2023-04-09T12:33:20.534Z,31.51
2023-04-09T12:34:20.589Z,30.91
2023-04-09T12:35:20.594Z,29.74
2023-04-09T12:36:20.621Z,29.19
2023-04-09T12:37:20.576Z,29.16
2023-04-09T12:38:20.632Z,28.14
2023-04-09T12:39:20.643Z,27.74
2023-04-09T12:40:20.648Z,28.43
2023-04-09T12:41:20.738Z,28.54
2023-04-09T12:42:20.828Z,29.03
2023-04-09T12:43:20.832Z,28.40
2023-04-09T12:44:20.839Z,28.00
2023-04-09T12:45:20.846Z,28.14
2023-04-09T12:46:20.939Z,28.11
2023-04-09T12:47:20.855Z,28.34
2023-04-09T12:48:20.957Z,28.32
2023-04-09T12:49:20.963Z,28.11
2023-04-09T12:50:20.970Z,27.58
2023-04-09T12:51:21.004Z,27.13
2023-04-09T12:52:20.988Z,27.63
2023-04-09T12:53:21.024Z,28.42